sensor_id;sensor_type;location;lat;lon;timestamp;pressure;altitude;pressure_sealevel;temperature;humidity
53900;BME280;40509;32.858;-116.858;2023-06-10T00:00:47;97959.47;;;23.36;50.07
53900;BME280;40509;32.858;-116.858;2023-06-10T00:03:14;97957.00;;;23.35;50.06
53900;BME280;40509;32.858;-116.858;2023-06-10T00:05:40;97956.03;;;23.44;49.82
53900;BME280;40509;32.858;-116.858;2023-06-10T00:08:08;97949.44;;;23.40;49.82
53900;BME280;40509;32.858;-116.858;2023-06-10T00:10:35;97955.84;;;23.46;49.96
53900;BME280;40509;32.858;-116.858;2023-06-10T00:13:03;97953.69;;;23.33;50.18
53900;BME280;40509;32.858;-116.858;2023-06-10T00:15:30;97959.63;;;23.27;49.83
53900;BME280;40509;32.858;-116.858;2023-06-10T00:17:57;97951.69;;;23.18;50.17
53900;BME280;40509;32.858;-116.858;2023-06-10T00:20:24;97940.50;;;23.24;49.92
53900;BME280;40509;32.858;-116.858;2023-06-10T00:22:52;97952.38;;;23.37;49.85
53900;BME280;40509;32.858;-116.858;2023-06-10T00:25:19;97946.75;;;23.23;49.94
53900;BME280;40509;32.858;-116.858;2023-06-10T00:27:46;97951.78;;;23.08;50.11
53900;BME280;40509;32.858;-116.858;2023-06-10T00:30:13;97939.13;;;23.12;50.07
53900;BME280;40509;32.858;-116.858;2023-06-10T00:32:39;97939.63;;;23.07;50.32
53900;BME280;40509;32.858;-116.858;2023-06-10T00:35:06;97945.19;;;23.04;49.93
53900;BME280;40509;32.858;-116.858;2023-06-10T00:37:34;97955.63;;;23.14;50.02
53900;BME280;40509;32.858;-116.858;2023-06-10T00:40:04;97955.31;;;23.26;49.68
53900;BME280;40509;32.858;-116.858;2023-06-10T00:42:32;97956.66;;;23.30;50.15
53900;BME280;40509;32.858;-116.858;2023-06-10T00:44:59;97964.22;;;23.33;50.09
53900;BME280;40509;32.858;-116.858;2023-06-10T00:47:27;97959.13;;;23.31;50.16
53900;BME280;40509;32.858;-116.858;2023-06-10T00:49:54;97962.56;;;23.32;50.57
53900;BME280;40509;32.858;-116.858;2023-06-10T00:52:21;97966.69;;;23.34;50.09
53900;BME280;40509;32.858;-116.858;2023-06-10T00:54:48;97955.16;;;23.35;50.19
53900;BME280;40509;32.858;-116.858;2023-06-10T00:57:16;97949.75;;;23.37;49.98
53900;BME280;40509;32.858;-116.858;2023-06-10T00:59:44;97953.84;;;23.39;49.93
53900;BME280;40509;32.858;-116.858;2023-06-10T01:02:13;97954.69;;;23.40;50.33
53900;BME280;40509;32.858;-116.858;2023-06-10T01:04:40;97954.84;;;23.38;50.30
53900;BME280;40509;32.858;-116.858;2023-06-10T01:07:14;97956.31;;;23.41;50.58
53900;BME280;40509;32.858;-116.858;2023-06-10T01:12:38;97961.59;;;23.41;50.28
53900;BME280;40509;32.858;-116.858;2023-06-10T01:15:06;97962.44;;;23.42;50.48
53900;BME280;40509;32.858;-116.858;2023-06-10T01:17:36;97962.28;;;23.43;50.76
53900;BME280;40509;32.858;-116.858;2023-06-10T01:20:03;97962.28;;;23.43;50.92
53900;BME280;40509;32.858;-116.858;2023-06-10T01:22:31;97958.66;;;23.44;50.69
53900;BME280;40509;32.858;-116.858;2023-06-10T01:24:58;97961.28;;;23.44;50.64
53900;BME280;40509;32.858;-116.858;2023-06-10T01:27:26;97963.94;;;23.44;50.75
53900;BME280;40509;32.858;-116.858;2023-06-10T01:29:59;97959.47;;;23.45;51.05
53900;BME280;40509;32.858;-116.858;2023-06-10T01:32:34;97960.44;;;23.44;51.13
53900;BME280;40509;32.858;-116.858;2023-06-10T01:35:03;97959.47;;;23.45;51.22
53900;BME280;40509;32.858;-116.858;2023-06-10T01:37:32;97952.38;;;23.45;51.29
53900;BME280;40509;32.858;-116.858;2023-06-10T01:40:00;97954.03;;;23.46;51.20
53900;BME280;40509;32.858;-116.858;2023-06-10T01:42:32;97953.22;;;23.46;51.11
53900;BME280;40509;32.858;-116.858;2023-06-10T01:44:59;97954.84;;;23.47;51.31
53900;BME280;40509;32.858;-116.858;2023-06-10T01:47:26;97959.31;;;23.46;51.40
53900;BME280;40509;32.858;-116.858;2023-06-10T01:49:53;97960.28;;;23.45;51.28
53900;BME280;40509;32.858;-116.858;2023-06-10T01:52:20;97957.66;;;23.45;51.45
53900;BME280;40509;32.858;-116.858;2023-06-10T01:54:47;97958.50;;;23.46;51.53
53900;BME280;40509;32.858;-116.858;2023-06-10T01:57:14;97972.47;;;23.46;51.58
53900;BME280;40509;32.858;-116.858;2023-06-10T01:59:41;97979.56;;;23.46;51.72
53900;BME280;40509;32.858;-116.858;2023-06-10T02:02:10;97985.66;;;23.46;51.69
53900;BME280;40509;32.858;-116.858;2023-06-10T02:04:38;97984.00;;;23.45;51.42
53900;BME280;40509;32.858;-116.858;2023-06-10T02:07:05;97984.00;;;23.45;51.58
53900;BME280;40509;32.858;-116.858;2023-06-10T02:09:32;97978.72;;;23.45;51.74
53900;BME280;40509;32.858;-116.858;2023-06-10T02:12:04;97971.84;;;23.44;51.81
53900;BME280;40509;32.858;-116.858;2023-06-10T02:14:34;97980.53;;;23.45;51.51
53900;BME280;40509;32.858;-116.858;2023-06-10T02:17:01;97984.16;;;23.44;51.93
53900;BME280;40509;32.858;-116.858;2023-06-10T02:19:28;97982.38;;;23.44;51.84
53900;BME280;40509;32.858;-116.858;2023-06-10T02:21:57;97978.06;;;23.43;51.93
53900;BME280;40509;32.858;-116.858;2023-06-10T02:24:24;97982.38;;;23.44;52.08
53900;BME280;40509;32.858;-116.858;2023-06-10T02:26:51;97994.06;;;23.42;51.86
53900;BME280;40509;32.858;-116.858;2023-06-10T02:29:19;97998.31;;;23.43;52.06
53900;BME280;40509;32.858;-116.858;2023-06-10T02:31:46;97994.88;;;23.42;51.91
53900;BME280;40509;32.858;-116.858;2023-06-10T02:34:13;97998.47;;;23.41;51.98
53900;BME280;40509;32.858;-116.858;2023-06-10T02:36:41;98002.78;;;23.42;52.25
53900;BME280;40509;32.858;-116.858;2023-06-10T02:39:08;98003.75;;;23.41;52.20
53900;BME280;40509;32.858;-116.858;2023-06-10T02:41:35;98002.94;;;23.40;52.21
53900;BME280;40509;32.858;-116.858;2023-06-10T02:44:02;98003.09;;;23.39;52.39
53900;BME280;40509;32.858;-116.858;2023-06-10T02:46:29;97997.00;;;23.38;52.08
53900;BME280;40509;32.858;-116.858;2023-06-10T02:48:56;98003.91;;;23.39;52.47
53900;BME280;40509;32.858;-116.858;2023-06-10T02:51:24;97999.63;;;23.38;52.53
53900;BME280;40509;32.858;-116.858;2023-06-10T02:53:57;97999.63;;;23.38;52.08
53900;BME280;40509;32.858;-116.858;2023-06-10T02:56:24;97995.19;;;23.39;52.47
53900;BME280;40509;32.858;-116.858;2023-06-10T02:58:54;98008.38;;;23.39;52.44
53900;BME280;40509;32.858;-116.858;2023-06-10T03:01:23;98011.97;;;23.38;52.06
53900;BME280;40509;32.858;-116.858;2023-06-10T03:04:11;98015.44;;;23.38;52.50
53900;BME280;40509;32.858;-116.858;2023-06-10T03:06:41;98015.44;;;23.38;52.57
53900;BME280;40509;32.858;-116.858;2023-06-10T03:09:15;98007.69;;;23.37;52.45
53900;BME280;40509;32.858;-116.858;2023-06-10T03:11:44;98012.97;;;23.37;52.65
53900;BME280;40509;32.858;-116.858;2023-06-10T03:14:11;98012.16;;;23.36;52.25
53900;BME280;40509;32.858;-116.858;2023-06-10T03:16:38;98006.06;;;23.36;52.73
53900;BME280;40509;32.858;-116.858;2023-06-10T03:19:09;98000.78;;;23.36;52.42
53900;BME280;40509;32.858;-116.858;2023-06-10T03:21:38;98009.50;;;23.36;52.72
53900;BME280;40509;32.858;-116.858;2023-06-10T03:24:08;98006.06;;;23.36;52.73
53900;BME280;40509;32.858;-116.858;2023-06-10T03:26:36;98018.38;;;23.35;52.48
53900;BME280;40509;32.858;-116.858;2023-06-10T03:29:03;98006.06;;;23.36;52.52
53900;BME280;40509;32.858;-116.858;2023-06-10T03:31:31;98009.69;;;23.35;52.85
53900;BME280;40509;32.858;-116.858;2023-06-10T03:33:58;98008.84;;;23.34;52.50
53900;BME280;40509;32.858;-116.858;2023-06-10T03:36:26;98014.94;;;23.35;52.79
53900;BME280;40509;32.858;-116.858;2023-06-10T03:38:56;98019.38;;;23.34;52.78
53900;BME280;40509;32.858;-116.858;2023-06-10T03:41:24;98016.91;;;23.33;52.87
53900;BME280;40509;32.858;-116.858;2023-06-10T03:43:51;98011.63;;;23.33;52.86
53900;BME280;40509;32.858;-116.858;2023-06-10T03:46:18;98008.19;;;23.32;52.64
53900;BME280;40509;32.858;-116.858;2023-06-10T03:48:46;98009.16;;;23.31;52.92
53900;BME280;40509;32.858;-116.858;2023-06-10T03:51:15;98013.63;;;23.31;52.99
53900;BME280;40509;32.858;-116.858;2023-06-10T03:53:42;98010.97;;;23.31;52.99
53900;BME280;40509;32.858;-116.858;2023-06-10T03:56:09;98007.50;;;23.30;52.72
53900;BME280;40509;32.858;-116.858;2023-06-10T03:58:36;98016.41;;;23.29;52.91
53900;BME280;40509;32.858;-116.858;2023-06-10T04:01:03;98024.16;;;23.31;52.60
53900;BME280;40509;32.858;-116.858;2023-06-10T04:03:34;98025.13;;;23.30;52.61
53900;BME280;40509;32.858;-116.858;2023-06-10T04:06:01;98025.28;;;23.28;52.63
53900;BME280;40509;32.858;-116.858;2023-06-10T04:08:28;98026.09;;;23.29;52.65
53900;BME280;40509;32.858;-116.858;2023-06-10T04:10:56;98029.72;;;23.28;52.63
53900;BME280;40509;32.858;-116.858;2023-06-10T04:13:23;98022.81;;;23.27;53.02
53900;BME280;40509;32.858;-116.858;2023-06-10T04:15:56;98034.97;;;23.28;52.75
53900;BME280;40509;32.858;-116.858;2023-06-10T04:18:23;98027.25;;;23.26;52.82
53900;BME280;40509;32.858;-116.858;2023-06-10T04:20:51;98026.44;;;23.26;53.00
53900;BME280;40509;32.858;-116.858;2023-06-10T04:23:17;98027.25;;;23.26;53.13
53900;BME280;40509;32.858;-116.858;2023-06-10T04:25:46;98023.81;;;23.26;53.12
53900;BME280;40509;32.858;-116.858;2023-06-10T04:28:13;98022.16;;;23.24;52.93
53900;BME280;40509;32.858;-116.858;2023-06-10T04:30:42;98022.16;;;23.24;52.85
53900;BME280;40509;32.858;-116.858;2023-06-10T04:33:08;98010.78;;;23.24;52.63
53900;BME280;40509;32.858;-116.858;2023-06-10T04:35:37;98011.78;;;23.23;52.71
53900;BME280;40509;32.858;-116.858;2023-06-10T04:38:06;98009.94;;;23.23;52.81
53900;BME280;40509;32.858;-116.858;2023-06-10T04:40:33;98014.41;;;23.23;53.06
53900;BME280;40509;32.858;-116.858;2023-06-10T04:43:00;98012.75;;;23.22;52.67
53900;BME280;40509;32.858;-116.858;2023-06-10T04:45:27;98020.66;;;23.22;52.64
53900;BME280;40509;32.858;-116.858;2023-06-10T04:47:56;98020.66;;;23.22;52.71
53900;BME280;40509;32.858;-116.858;2023-06-10T04:50:26;98025.09;;;23.21;52.98
53900;BME280;40509;32.858;-116.858;2023-06-10T04:52:53;98030.38;;;23.21;52.71
53900;BME280;40509;32.858;-116.858;2023-06-10T04:55:23;98025.09;;;23.21;52.73
53900;BME280;40509;32.858;-116.858;2023-06-10T04:57:51;98029.69;;;23.19;52.87
53900;BME280;40509;32.858;-116.858;2023-06-10T05:00:18;98036.78;;;23.19;52.89
53900;BME280;40509;32.858;-116.858;2023-06-10T05:02:45;98031.50;;;23.19;53.03
53900;BME280;40509;32.858;-116.858;2023-06-10T05:05:16;98022.81;;;23.18;53.09
53900;BME280;40509;32.858;-116.858;2023-06-10T05:07:43;98021.16;;;23.17;52.65
53900;BME280;40509;32.858;-116.858;2023-06-10T05:10:10;98017.53;;;23.18;52.69
53900;BME280;40509;32.858;-116.858;2023-06-10T05:12:39;98018.50;;;23.17;52.71
53900;BME280;40509;32.858;-116.858;2023-06-10T05:15:07;98021.31;;;23.16;52.72
53900;BME280;40509;32.858;-116.858;2023-06-10T05:17:34;98022.13;;;23.16;53.10
53900;BME280;40509;32.858;-116.858;2023-06-10T05:20:04;98020.47;;;23.15;52.96
53900;BME280;40509;32.858;-116.858;2023-06-10T05:22:31;98019.66;;;23.15;52.78
53900;BME280;40509;32.858;-116.858;2023-06-10T05:24:58;98012.72;;;23.14;52.71
53900;BME280;40509;32.858;-116.858;2023-06-10T05:27:25;98010.09;;;23.14;52.68
53900;BME280;40509;32.858;-116.858;2023-06-10T05:29:51;98005.81;;;23.13;52.91
53900;BME280;40509;32.858;-116.858;2023-06-10T05:32:18;97998.03;;;23.11;52.61
53900;BME280;40509;32.858;-116.858;2023-06-10T05:34:45;98002.31;;;23.12;52.66
53900;BME280;40509;32.858;-116.858;2023-06-10T05:37:12;98005.94;;;23.11;52.71
53900;BME280;40509;32.858;-116.858;2023-06-10T05:39:40;98011.38;;;23.10;52.63
53900;BME280;40509;32.858;-116.858;2023-06-10T05:42:07;98009.72;;;23.08;52.69
53900;BME280;40509;32.858;-116.858;2023-06-10T05:44:34;98008.72;;;23.10;52.61
53900;BME280;40509;32.858;-116.858;2023-06-10T05:47:01;98008.91;;;23.08;52.67
53900;BME280;40509;32.858;-116.858;2023-06-10T05:49:28;98006.25;;;23.08;52.61
53900;BME280;40509;32.858;-116.858;2023-06-10T05:51:55;98002.94;;;23.06;52.58
53900;BME280;40509;32.858;-116.858;2023-06-10T05:54:23;98007.25;;;23.07;52.78
53900;BME280;40509;32.858;-116.858;2023-06-10T05:56:50;98007.41;;;23.05;52.54
53900;BME280;40509;32.858;-116.858;2023-06-10T05:59:17;98005.75;;;23.04;52.84
53900;BME280;40509;32.858;-116.858;2023-06-10T06:01:44;98014.50;;;23.05;52.54
53900;BME280;40509;32.858;-116.858;2023-06-10T06:04:11;98004.13;;;23.03;52.57
53900;BME280;40509;32.858;-116.858;2023-06-10T06:06:38;98005.09;;;23.02;52.46
53900;BME280;40509;32.858;-116.858;2023-06-10T06:09:05;98002.31;;;23.04;52.41
53900;BME280;40509;32.858;-116.858;2023-06-10T06:11:33;98002.47;;;23.02;52.40
53900;BME280;40509;32.858;-116.858;2023-06-10T06:14:00;98005.91;;;23.03;52.48
53900;BME280;40509;32.858;-116.858;2023-06-10T06:16:27;97999.00;;;23.02;52.48
53900;BME280;40509;32.858;-116.858;2023-06-10T06:18:54;98001.63;;;23.02;52.52
53900;BME280;40509;32.858;-116.858;2023-06-10T06:21:20;98002.63;;;23.01;52.38
53900;BME280;40509;32.858;-116.858;2023-06-10T06:23:47;98006.22;;;23.00;52.64
53900;BME280;40509;32.858;-116.858;2023-06-10T06:26:14;97994.03;;;22.99;52.61
53900;BME280;40509;32.858;-116.858;2023-06-10T06:28:41;97988.13;;;22.97;52.72
53900;BME280;40509;32.858;-116.858;2023-06-10T06:31:08;97989.91;;;22.96;52.42
53900;BME280;40509;32.858;-116.858;2023-06-10T06:33:34;97995.03;;;22.98;52.65
53900;BME280;40509;32.858;-116.858;2023-06-10T06:36:01;97989.91;;;22.96;52.72
53900;BME280;40509;32.858;-116.858;2023-06-10T06:38:28;97986.31;;;22.97;52.43
53900;BME280;40509;32.858;-116.858;2023-06-10T06:40:56;97982.19;;;22.95;52.45
53900;BME280;40509;32.858;-116.858;2023-06-10T06:43:22;97977.91;;;22.94;52.49
53900;BME280;40509;32.858;-116.858;2023-06-10T06:46:02;97982.19;;;22.95;52.32
53900;BME280;40509;32.858;-116.858;2023-06-10T06:48:29;97983.31;;;22.92;52.43
53900;BME280;40509;32.858;-116.858;2023-06-10T06:50:56;97982.50;;;22.92;52.39
53900;BME280;40509;32.858;-116.858;2023-06-10T06:53:24;97980.84;;;22.90;52.79
53900;BME280;40509;32.858;-116.858;2023-06-10T06:55:51;97968.66;;;22.89;52.77
53900;BME280;40509;32.858;-116.858;2023-06-10T06:58:17;97968.66;;;22.89;52.71
53900;BME280;40509;32.858;-116.858;2023-06-10T07:00:44;97977.56;;;22.88;52.62
53900;BME280;40509;32.858;-116.858;2023-06-10T07:03:11;97967.19;;;22.87;52.77
53900;BME280;40509;32.858;-116.858;2023-06-10T07:05:38;97966.38;;;22.86;52.54
53900;BME280;40509;32.858;-116.858;2023-06-10T07:08:05;97963.72;;;22.86;52.61
53900;BME280;40509;32.858;-116.858;2023-06-10T07:10:32;97971.63;;;22.86;52.32
53900;BME280;40509;32.858;-116.858;2023-06-10T07:12:59;97957.81;;;22.84;52.69
53900;BME280;40509;32.858;-116.858;2023-06-10T07:15:26;97961.25;;;22.85;52.77
53900;BME280;40509;32.858;-116.858;2023-06-10T07:17:53;97957.13;;;22.82;52.52
53900;BME280;40509;32.858;-116.858;2023-06-10T07:20:19;97948.28;;;22.83;52.46
53900;BME280;40509;32.858;-116.858;2023-06-10T07:22:46;97945.81;;;22.82;52.54
53900;BME280;40509;32.858;-116.858;2023-06-10T07:25:13;97947.59;;;22.81;52.49
53900;BME280;40509;32.858;-116.858;2023-06-10T07:27:39;97947.59;;;22.81;52.41
53900;BME280;40509;32.858;-116.858;2023-06-10T07:30:06;97949.09;;;22.92;51.93
53900;BME280;40509;32.858;-116.858;2023-06-10T07:32:34;97944.19;;;22.97;52.17
53900;BME280;40509;32.858;-116.858;2023-06-10T07:35:01;97944.81;;;22.91;52.00
53900;BME280;40509;32.858;-116.858;2023-06-10T07:37:28;97944.66;;;22.84;52.50
53900;BME280;40509;32.858;-116.858;2023-06-10T07:39:55;97936.91;;;22.83;52.20
53900;BME280;40509;32.858;-116.858;2023-06-10T07:42:23;97933.78;;;22.79;52.54
53900;BME280;40509;32.858;-116.858;2023-06-10T07:44:50;97931.31;;;22.78;52.44
53900;BME280;40509;32.858;-116.858;2023-06-10T07:47:17;97935.91;;;22.76;52.36
53900;BME280;40509;32.858;-116.858;2023-06-10T07:49:44;97932.44;;;22.75;52.76
53900;BME280;40509;32.858;-116.858;2023-06-10T07:52:11;97938.69;;;22.74;52.60
53900;BME280;40509;32.858;-116.858;2023-06-10T07:54:37;97941.16;;;22.76;52.72
53900;BME280;40509;32.858;-116.858;2023-06-10T07:57:04;97944.13;;;22.72;52.42
53900;BME280;40509;32.858;-116.858;2023-06-10T07:59:33;97939.66;;;22.73;52.74
53900;BME280;40509;32.858;-116.858;2023-06-10T08:02:00;97923.06;;;22.72;52.57
53900;BME280;40509;32.858;-116.858;2023-06-10T08:04:26;97926.50;;;22.73;52.36
53900;BME280;40509;32.858;-116.858;2023-06-10T08:06:53;97917.13;;;22.70;52.36
53900;BME280;40509;32.858;-116.858;2023-06-10T08:09:20;97911.03;;;22.70;52.71
53900;BME280;40509;32.858;-116.858;2023-06-10T08:11:49;97906.75;;;22.69;52.61
53900;BME280;40509;32.858;-116.858;2023-06-10T08:14:16;97902.47;;;22.68;52.65
53900;BME280;40509;32.858;-116.858;2023-06-10T08:16:42;97905.09;;;22.68;52.60
53900;BME280;40509;32.858;-116.858;2023-06-10T08:19:09;97889.31;;;22.68;52.30
53900;BME280;40509;32.858;-116.858;2023-06-10T08:21:36;97874.53;;;22.67;52.54
53900;BME280;40509;32.858;-116.858;2023-06-10T08:24:06;97872.88;;;22.66;52.66
53900;BME280;40509;32.858;-116.858;2023-06-10T08:26:33;97878.94;;;22.66;52.43
53900;BME280;40509;32.858;-116.858;2023-06-10T08:29:00;97871.22;;;22.65;52.32
53900;BME280;40509;32.858;-116.858;2023-06-10T08:31:26;97853.78;;;22.64;52.71
53900;BME280;40509;32.858;-116.858;2023-06-10T08:33:53;97859.03;;;22.64;52.27
53900;BME280;40509;32.858;-116.858;2023-06-10T08:36:20;97852.16;;;22.63;52.57
53900;BME280;40509;32.858;-116.858;2023-06-10T08:38:47;97869.56;;;22.64;52.39
53900;BME280;40509;32.858;-116.858;2023-06-10T08:41:14;97880.09;;;22.64;52.51
53900;BME280;40509;32.858;-116.858;2023-06-10T08:44:26;97873.22;;;22.63;52.21
53900;BME280;40509;32.858;-116.858;2023-06-10T08:46:33;97869.56;;;22.64;52.52
53900;BME280;40509;32.858;-116.858;2023-06-10T08:49:03;97855.59;;;22.63;52.02
53900;BME280;40509;32.858;-116.858;2023-06-10T08:51:32;97860.19;;;22.61;52.41
53900;BME280;40509;32.858;-116.858;2023-06-10T08:54:13;97864.00;;;22.59;52.29
53900;BME280;40509;32.858;-116.858;2023-06-10T08:56:42;97869.09;;;22.60;52.42
53900;BME280;40509;32.858;-116.858;2023-06-10T08:59:09;97866.47;;;22.60;52.43
53900;BME280;40509;32.858;-116.858;2023-06-10T09:01:36;97861.34;;;22.59;52.25
53900;BME280;40509;32.858;-116.858;2023-06-10T09:04:04;97863.81;;;22.60;52.27
53900;BME280;40509;32.858;-116.858;2023-06-10T09:06:32;97861.34;;;22.59;52.53
53900;BME280;40509;32.858;-116.858;2023-06-10T09:09:00;97864.13;;;22.57;52.30
53900;BME280;40509;32.858;-116.858;2023-06-10T09:11:27;97870.22;;;22.58;52.30
53900;BME280;40509;32.858;-116.858;2023-06-10T09:13:54;97869.53;;;22.55;52.54
53900;BME280;40509;32.858;-116.858;2023-06-10T09:16:21;97851.97;;;22.56;52.45
53900;BME280;40509;32.858;-116.858;2023-06-10T09:18:48;97852.78;;;22.56;52.34
53900;BME280;40509;32.858;-116.858;2023-06-10T09:21:14;97848.34;;;22.57;52.38
53900;BME280;40509;32.858;-116.858;2023-06-10T09:23:41;97849.47;;;22.54;52.12
53900;BME280;40509;32.858;-116.858;2023-06-10T09:26:09;97834.03;;;22.51;52.42
53900;BME280;40509;32.858;-116.858;2023-06-10T09:28:37;97825.31;;;22.51;52.42
53900;BME280;40509;32.858;-116.858;2023-06-10T09:31:05;97831.22;;;22.53;52.25
53900;BME280;40509;32.858;-116.858;2023-06-10T09:33:37;97830.41;;;22.52;52.26
53900;BME280;40509;32.858;-116.858;2023-06-10T09:36:05;97841.09;;;22.51;52.62
53900;BME280;40509;32.858;-116.858;2023-06-10T09:38:32;97840.78;;;22.54;52.12
53900;BME280;40509;32.858;-116.858;2023-06-10T09:41:00;97842.88;;;22.50;52.29
53900;BME280;40509;32.858;-116.858;2023-06-10T09:43:39;97848.31;;;22.49;52.26
53900;BME280;40509;32.858;-116.858;2023-06-10T09:46:07;97847.16;;;22.51;51.99
53900;BME280;40509;32.858;-116.858;2023-06-10T09:48:40;97841.25;;;22.49;52.32
53900;BME280;40509;32.858;-116.858;2023-06-10T09:51:09;97831.38;;;22.51;52.07
53900;BME280;40509;32.858;-116.858;2023-06-10T09:53:37;97838.78;;;22.48;52.22
53900;BME280;40509;32.858;-116.858;2023-06-10T09:56:04;97844.69;;;22.50;51.98
53900;BME280;40509;32.858;-116.858;2023-06-10T09:58:37;97838.47;;;22.51;52.08
53900;BME280;40509;32.858;-116.858;2023-06-10T10:01:05;97830.22;;;22.46;52.11
53900;BME280;40509;32.858;-116.858;2023-06-10T10:03:32;97830.75;;;22.49;52.00
53900;BME280;40509;32.858;-116.858;2023-06-10T10:05:59;97815.41;;;22.45;52.17
53900;BME280;40509;32.858;-116.858;2023-06-10T10:08:27;97804.09;;;22.44;52.32
53900;BME280;40509;32.858;-116.858;2023-06-10T10:13:21;97795.69;;;22.40;52.21
53900;BME280;40509;32.858;-116.858;2023-06-10T10:15:48;97795.38;;;22.44;52.31
53900;BME280;40509;32.858;-116.858;2023-06-10T10:18:16;97789.28;;;22.43;52.43
53900;BME280;40509;32.858;-116.858;2023-06-10T10:20:49;97777.09;;;22.42;52.30
53900;BME280;40509;32.858;-116.858;2023-06-10T10:23:21;97780.22;;;22.37;52.36
53900;BME280;40509;32.858;-116.858;2023-06-10T10:25:54;97781.56;;;22.42;52.14
53900;BME280;40509;32.858;-116.858;2023-06-10T10:28:21;97782.69;;;22.39;52.12
53900;BME280;40509;32.858;-116.858;2023-06-10T10:30:52;97769.88;;;22.36;52.31
53900;BME280;40509;32.858;-116.858;2023-06-10T10:33:22;97767.09;;;22.37;52.25
53900;BME280;40509;32.858;-116.858;2023-06-10T10:35:50;97770.69;;;22.36;52.15
53900;BME280;40509;32.858;-116.858;2023-06-10T10:38:18;97767.91;;;22.38;52.36
53900;BME280;40509;32.858;-116.858;2023-06-10T10:40:46;97774.16;;;22.37;52.10
53900;BME280;40509;32.858;-116.858;2023-06-10T10:43:14;97778.41;;;22.38;52.08
53900;BME280;40509;32.858;-116.858;2023-06-10T10:45:46;97771.78;;;22.34;51.96
53900;BME280;40509;32.858;-116.858;2023-06-10T10:48:24;97764.91;;;22.33;52.37
53900;BME280;40509;32.858;-116.858;2023-06-10T10:50:56;97759.66;;;22.33;52.10
53900;BME280;40509;32.858;-116.858;2023-06-10T10:53:24;97756.50;;;22.29;52.01
53900;BME280;40509;32.858;-116.858;2023-06-10T10:56:24;97737.44;;;22.27;51.88
53900;BME280;40509;32.858;-116.858;2023-06-10T11:01:46;97725.47;;;22.33;52.04
53900;BME280;40509;32.858;-116.858;2023-06-10T11:04:13;97718.25;;;22.35;52.31
53900;BME280;40509;32.858;-116.858;2023-06-10T11:06:39;97714.44;;;22.29;52.06
53900;BME280;40509;32.858;-116.858;2023-06-10T11:09:25;97716.91;;;22.31;52.10
53900;BME280;40509;32.858;-116.858;2023-06-10T11:11:56;97722.84;;;22.33;52.03
53900;BME280;40509;32.858;-116.858;2023-06-10T11:14:26;97739.25;;;22.27;52.13
53900;BME280;40509;32.858;-116.858;2023-06-10T11:16:56;97735.63;;;22.28;51.96
53900;BME280;40509;32.858;-116.858;2023-06-10T11:19:33;97728.09;;;22.33;52.16
53900;BME280;40509;32.858;-116.858;2023-06-10T11:22:01;97719.53;;;22.31;51.96
53900;BME280;40509;32.858;-116.858;2023-06-10T11:24:29;97725.16;;;22.36;51.98
53900;BME280;40509;32.858;-116.858;2023-06-10T11:27:14;97729.53;;;22.27;52.25
53900;BME280;40509;32.858;-116.858;2023-06-10T11:29:54;97726.44;;;22.23;52.22
53900;BME280;40509;32.858;-116.858;2023-06-10T11:32:22;97732.66;;;22.22;52.06
53900;BME280;40509;32.858;-116.858;2023-06-10T11:34:52;97730.84;;;22.23;52.16
53900;BME280;40509;32.858;-116.858;2023-06-10T11:37:20;97735.94;;;22.24;51.94
53900;BME280;40509;32.858;-116.858;2023-06-10T11:39:51;97718.34;;;22.17;52.22
53900;BME280;40509;32.858;-116.858;2023-06-10T11:42:19;97718.53;;;22.15;52.02
53900;BME280;40509;32.858;-116.858;2023-06-10T11:44:52;97718.53;;;22.23;51.69
53900;BME280;40509;32.858;-116.858;2023-06-10T11:47:20;97727.56;;;22.21;51.90
53900;BME280;40509;32.858;-116.858;2023-06-10T11:49:57;97733.31;;;22.24;52.03
53900;BME280;40509;32.858;-116.858;2023-06-10T11:52:33;97738.56;;;22.24;52.13
53900;BME280;40509;32.858;-116.858;2023-06-10T11:55:05;97738.91;;;22.21;52.11
53900;BME280;40509;32.858;-116.858;2023-06-10T11:57:35;97751.06;;;22.22;51.93
53900;BME280;40509;32.858;-116.858;2023-06-10T12:00:05;97759.13;;;22.21;52.14
53900;BME280;40509;32.858;-116.858;2023-06-10T12:02:37;97761.75;;;22.21;52.22
53900;BME280;40509;32.858;-116.858;2023-06-10T12:05:13;97759.59;;;22.16;52.07
53900;BME280;40509;32.858;-116.858;2023-06-10T12:07:40;97755.00;;;22.18;52.00
53900;BME280;40509;32.858;-116.858;2023-06-10T12:10:07;97760.41;;;22.17;51.99
53900;BME280;40509;32.858;-116.858;2023-06-10T12:12:34;97759.75;;;22.15;52.42
53900;BME280;40509;32.858;-116.858;2023-06-10T12:15:03;97758.09;;;22.14;52.16
53900;BME280;40509;32.858;-116.858;2023-06-10T12:20:01;97756.94;;;22.16;51.80
53900;BME280;40509;32.858;-116.858;2023-06-10T12:23:07;97757.28;;;22.13;52.36
53900;BME280;40509;32.858;-116.858;2023-06-10T12:25:26;97762.03;;;22.10;51.93
53900;BME280;40509;32.858;-116.858;2023-06-10T12:27:54;97749.38;;;22.05;52.35
53900;BME280;40509;32.858;-116.858;2023-06-10T12:30:22;97751.66;;;22.08;52.40
53900;BME280;40509;32.858;-116.858;2023-06-10T12:32:50;97756.75;;;22.10;52.23
53900;BME280;40509;32.858;-116.858;2023-06-10T12:35:25;97774.50;;;22.08;52.20
53900;BME280;40509;32.858;-116.858;2023-06-10T12:37:59;97773.38;;;22.10;52.31
53900;BME280;40509;32.858;-116.858;2023-06-10T12:40:37;97772.69;;;22.08;52.37
53900;BME280;40509;32.858;-116.858;2023-06-10T12:43:06;97775.03;;;22.11;52.28
53900;BME280;40509;32.858;-116.858;2023-06-10T12:45:34;97790.13;;;22.09;52.06
53900;BME280;40509;32.858;-116.858;2023-06-10T12:48:08;97780.28;;;22.11;52.33